sensor_id;sensor_type;location;lat;lon;timestamp;P1;durP1;ratioP1;P2;durP2;ratioP2
5416;SDS011;2731;50.754;12.990;2023-09-30T00:00:37;33.55;;;12.40;;
5416;SDS011;2731;50.754;12.990;2023-09-30T00:03:23;26.20;;;11.82;;
5416;SDS011;2731;50.754;12.990;2023-09-30T00:06:09;29.38;;;13.23;;
5416;SDS011;2731;50.754;12.990;2023-09-30T00:08:54;26.30;;;12.07;;
5416;SDS011;2731;50.754;12.990;2023-09-30T00:11:39;26.55;;;11.52;;
5416;SDS011;2731;50.754;12.990;2023-09-30T00:14:24;26.75;;;12.15;;
5416;SDS011;2731;50.754;12.990;2023-09-30T00:17:09;30.38;;;11.27;;
5416;SDS011;2731;50.754;12.990;2023-09-30T00:19:55;25.98;;;10.68;;
5416;SDS011;2731;50.754;12.990;2023-09-30T00:22:40;23.48;;;10.15;;
5416;SDS011;2731;50.754;12.990;2023-09-30T00:25:25;25.42;;;9.73;;
5416;SDS011;2731;50.754;12.990;2023-09-30T00:28:12;24.55;;;10.00;;
5416;SDS011;2731;50.754;12.990;2023-09-30T00:31:00;17.83;;;7.57;;
5416;SDS011;2731;50.754;12.990;2023-09-30T00:33:49;16.90;;;7.50;;
5416;SDS011;2731;50.754;12.990;2023-09-30T00:36:34;9.25;;;4.15;;
5416;SDS011;2731;50.754;12.990;2023-09-30T00:39:19;7.00;;;4.18;;
5416;SDS011;2731;50.754;12.990;2023-09-30T00:42:03;7.93;;;3.60;;
5416;SDS011;2731;50.754;12.990;2023-09-30T00:44:48;4.72;;;3.08;;
5416;SDS011;2731;50.754;12.990;2023-09-30T00:47:34;6.40;;;3.20;;
5416;SDS011;2731;50.754;12.990;2023-09-30T00:50:22;4.70;;;2.85;;
5416;SDS011;2731;50.754;12.990;2023-09-30T00:53:07;5.38;;;3.08;;
5416;SDS011;2731;50.754;12.990;2023-09-30T00:55:56;3.95;;;2.00;;
5416;SDS011;2731;50.754;12.990;2023-09-30T00:58:44;5.10;;;2.45;;
5416;SDS011;2731;50.754;12.990;2023-09-30T01:01:31;3.42;;;2.22;;
5416;SDS011;2731;50.754;12.990;2023-09-30T01:04:17;5.43;;;1.95;;
5416;SDS011;2731;50.754;12.990;2023-09-30T01:07:05;2.95;;;2.05;;
5416;SDS011;2731;50.754;12.990;2023-09-30T01:09:33;2.88;;;1.63;;
5416;SDS011;2731;50.754;12.990;2023-09-30T01:12:20;4.35;;;1.50;;
5416;SDS011;2731;50.754;12.990;2023-09-30T01:15:05;2.78;;;1.63;;
5416;SDS011;2731;50.754;12.990;2023-09-30T01:17:50;5.85;;;1.83;;
5416;SDS011;2731;50.754;12.990;2023-09-30T01:20:35;3.20;;;1.50;;
5416;SDS011;2731;50.754;12.990;2023-09-30T01:23:22;4.93;;;1.80;;
5416;SDS011;2731;50.754;12.990;2023-09-30T01:26:09;2.85;;;1.25;;
5416;SDS011;2731;50.754;12.990;2023-09-30T01:28:54;2.92;;;1.27;;
5416;SDS011;2731;50.754;12.990;2023-09-30T01:31:40;2.50;;;1.48;;
5416;SDS011;2731;50.754;12.990;2023-09-30T01:34:25;4.25;;;1.15;;
5416;SDS011;2731;50.754;12.990;2023-09-30T01:37:13;6.70;;;1.30;;
5416;SDS011;2731;50.754;12.990;2023-09-30T01:40:01;5.60;;;1.50;;
5416;SDS011;2731;50.754;12.990;2023-09-30T01:42:56;4.25;;;1.73;;
5416;SDS011;2731;50.754;12.990;2023-09-30T01:45:42;3.95;;;1.50;;
5416;SDS011;2731;50.754;12.990;2023-09-30T01:48:28;3.88;;;1.33;;
5416;SDS011;2731;50.754;12.990;2023-09-30T01:51:12;3.85;;;1.50;;
5416;SDS011;2731;50.754;12.990;2023-09-30T01:53:57;3.35;;;1.05;;
5416;SDS011;2731;50.754;12.990;2023-09-30T01:56:43;3.17;;;1.20;;
5416;SDS011;2731;50.754;12.990;2023-09-30T01:59:31;5.80;;;1.40;;
5416;SDS011;2731;50.754;12.990;2023-09-30T02:01:57;4.57;;;1.90;;
5416;SDS011;2731;50.754;12.990;2023-09-30T02:04:43;6.80;;;2.05;;
5416;SDS011;2731;50.754;12.990;2023-09-30T02:07:28;4.55;;;1.48;;
5416;SDS011;2731;50.754;12.990;2023-09-30T02:10:13;3.40;;;1.70;;
5416;SDS011;2731;50.754;12.990;2023-09-30T02:12:59;5.28;;;1.42;;
5416;SDS011;2731;50.754;12.990;2023-09-30T02:15:45;2.92;;;1.50;;
5416;SDS011;2731;50.754;12.990;2023-09-30T02:18:30;8.25;;;1.70;;
5416;SDS011;2731;50.754;12.990;2023-09-30T02:21:19;10.73;;;1.98;;
5416;SDS011;2731;50.754;12.990;2023-09-30T02:24:06;5.38;;;1.77;;
5416;SDS011;2731;50.754;12.990;2023-09-30T02:26:51;5.45;;;1.90;;
5416;SDS011;2731;50.754;12.990;2023-09-30T02:29:36;5.25;;;1.95;;
5416;SDS011;2731;50.754;12.990;2023-09-30T02:32:20;4.35;;;2.03;;
5416;SDS011;2731;50.754;12.990;2023-09-30T02:35:08;4.43;;;1.30;;
5416;SDS011;2731;50.754;12.990;2023-09-30T02:37:57;6.15;;;2.13;;
5416;SDS011;2731;50.754;12.990;2023-09-30T02:40:45;5.35;;;1.83;;
5416;SDS011;2731;50.754;12.990;2023-09-30T02:43:31;8.35;;;2.20;;
5416;SDS011;2731;50.754;12.990;2023-09-30T02:46:19;6.00;;;1.88;;
5416;SDS011;2731;50.754;12.990;2023-09-30T02:49:03;10.02;;;2.63;;
5416;SDS011;2731;50.754;12.990;2023-09-30T02:51:48;6.13;;;2.28;;
5416;SDS011;2731;50.754;12.990;2023-09-30T02:54:15;6.07;;;2.72;;
5416;SDS011;2731;50.754;12.990;2023-09-30T02:57:00;3.80;;;1.80;;
5416;SDS011;2731;50.754;12.990;2023-09-30T02:59:47;6.47;;;2.20;;
5416;SDS011;2731;50.754;12.990;2023-09-30T03:02:32;6.20;;;1.88;;
5416;SDS011;2731;50.754;12.990;2023-09-30T03:05:17;7.63;;;2.42;;
5416;SDS011;2731;50.754;12.990;2023-09-30T03:08:04;7.57;;;2.55;;
5416;SDS011;2731;50.754;12.990;2023-09-30T03:10:30;4.28;;;2.33;;
5416;SDS011;2731;50.754;12.990;2023-09-30T03:13:16;5.40;;;2.05;;
5416;SDS011;2731;50.754;12.990;2023-09-30T03:16:02;9.80;;;3.00;;
5416;SDS011;2731;50.754;12.990;2023-09-30T03:18:47;8.25;;;2.35;;
5416;SDS011;2731;50.754;12.990;2023-09-30T03:21:36;14.48;;;3.05;;
5416;SDS011;2731;50.754;12.990;2023-09-30T03:24:24;11.57;;;2.75;;
5416;SDS011;2731;50.754;12.990;2023-09-30T03:27:11;7.10;;;2.58;;
5416;SDS011;2731;50.754;12.990;2023-09-30T03:29:57;7.03;;;2.30;;
5416;SDS011;2731;50.754;12.990;2023-09-30T03:32:42;13.88;;;3.45;;
5416;SDS011;2731;50.754;12.990;2023-09-30T03:35:27;5.32;;;2.15;;
5416;SDS011;2731;50.754;12.990;2023-09-30T03:38:13;5.07;;;1.85;;
5416;SDS011;2731;50.754;12.990;2023-09-30T03:40:59;7.85;;;2.40;;
5416;SDS011;2731;50.754;12.990;2023-09-30T03:43:46;6.80;;;2.50;;
5416;SDS011;2731;50.754;12.990;2023-09-30T03:46:32;9.40;;;2.72;;
5416;SDS011;2731;50.754;12.990;2023-09-30T03:49:18;8.80;;;2.53;;
5416;SDS011;2731;50.754;12.990;2023-09-30T03:52:06;6.00;;;2.35;;
5416;SDS011;2731;50.754;12.990;2023-09-30T03:54:52;6.10;;;2.60;;
5416;SDS011;2731;50.754;12.990;2023-09-30T03:57:39;6.70;;;2.40;;
5416;SDS011;2731;50.754;12.990;2023-09-30T04:00:24;10.45;;;2.33;;
5416;SDS011;2731;50.754;12.990;2023-09-30T04:03:22;6.93;;;2.60;;
5416;SDS011;2731;50.754;12.990;2023-09-30T04:06:08;11.73;;;3.53;;
5416;SDS011;2731;50.754;12.990;2023-09-30T04:08:52;6.15;;;2.63;;
5416;SDS011;2731;50.754;12.990;2023-09-30T04:11:37;10.00;;;3.28;;
5416;SDS011;2731;50.754;12.990;2023-09-30T04:14:26;12.70;;;3.78;;
5416;SDS011;2731;50.754;12.990;2023-09-30T04:17:12;15.30;;;5.43;;
5416;SDS011;2731;50.754;12.990;2023-09-30T04:19:38;10.82;;;3.15;;
5416;SDS011;2731;50.754;12.990;2023-09-30T04:22:23;10.35;;;3.17;;
5416;SDS011;2731;50.754;12.990;2023-09-30T04:25:10;10.48;;;3.45;;
5416;SDS011;2731;50.754;12.990;2023-09-30T04:27:56;6.70;;;3.00;;
5416;SDS011;2731;50.754;12.990;2023-09-30T04:30:44;6.65;;;2.75;;
5416;SDS011;2731;50.754;12.990;2023-09-30T04:33:28;10.65;;;3.58;;
5416;SDS011;2731;50.754;12.990;2023-09-30T04:36:05;7.50;;;3.00;;
5416;SDS011;2731;50.754;12.990;2023-09-30T04:38:58;16.13;;;3.85;;
5416;SDS011;2731;50.754;12.990;2023-09-30T04:41:44;9.80;;;3.10;;
5416;SDS011;2731;50.754;12.990;2023-09-30T04:44:32;8.45;;;3.55;;
5416;SDS011;2731;50.754;12.990;2023-09-30T04:47:17;9.45;;;3.00;;
5416;SDS011;2731;50.754;12.990;2023-09-30T04:50:02;13.77;;;3.88;;
5416;SDS011;2731;50.754;12.990;2023-09-30T04:52:48;10.77;;;3.63;;
5416;SDS011;2731;50.754;12.990;2023-09-30T04:55:34;8.27;;;3.33;;
5416;SDS011;2731;50.754;12.990;2023-09-30T04:58:18;9.32;;;3.22;;
5416;SDS011;2731;50.754;12.990;2023-09-30T05:01:03;8.77;;;2.90;;
5416;SDS011;2731;50.754;12.990;2023-09-30T05:03:48;10.90;;;3.00;;
5416;SDS011;2731;50.754;12.990;2023-09-30T05:06:33;7.63;;;2.53;;
5416;SDS011;2731;50.754;12.990;2023-09-30T05:09:19;10.50;;;3.10;;
5416;SDS011;2731;50.754;12.990;2023-09-30T05:12:06;7.00;;;2.63;;
5416;SDS011;2731;50.754;12.990;2023-09-30T05:14:52;9.80;;;2.92;;
5416;SDS011;2731;50.754;12.990;2023-09-30T05:17:42;8.85;;;3.55;;
5416;SDS011;2731;50.754;12.990;2023-09-30T05:20:31;7.30;;;2.60;;
5416;SDS011;2731;50.754;12.990;2023-09-30T05:23:19;7.95;;;2.78;;
5416;SDS011;2731;50.754;12.990;2023-09-30T05:26:04;9.85;;;3.05;;
5416;SDS011;2731;50.754;12.990;2023-09-30T05:28:50;9.25;;;3.25;;
5416;SDS011;2731;50.754;12.990;2023-09-30T05:31:35;11.18;;;3.10;;
5416;SDS011;2731;50.754;12.990;2023-09-30T05:34:20;7.90;;;3.45;;
5416;SDS011;2731;50.754;12.990;2023-09-30T05:37:05;11.82;;;3.65;;
5416;SDS011;2731;50.754;12.990;2023-09-30T05:39:50;6.10;;;2.65;;
5416;SDS011;2731;50.754;12.990;2023-09-30T05:42:36;9.90;;;3.35;;
5416;SDS011;2731;50.754;12.990;2023-09-30T05:45:23;10.35;;;3.55;;
5416;SDS011;2731;50.754;12.990;2023-09-30T05:48:07;7.07;;;3.67;;
5416;SDS011;2731;50.754;12.990;2023-09-30T05:50:52;8.57;;;3.88;;
5416;SDS011;2731;50.754;12.990;2023-09-30T05:53:37;12.27;;;4.78;;
5416;SDS011;2731;50.754;12.990;2023-09-30T05:56:22;8.52;;;4.47;;
5416;SDS011;2731;50.754;12.990;2023-09-30T05:59:07;11.80;;;4.75;;
5416;SDS011;2731;50.754;12.990;2023-09-30T06:01:52;11.70;;;4.90;;
5416;SDS011;2731;50.754;12.990;2023-09-30T06:04:36;13.38;;;6.28;;
5416;SDS011;2731;50.754;12.990;2023-09-30T06:07:21;17.27;;;6.45;;
5416;SDS011;2731;50.754;12.990;2023-09-30T06:10:06;8.57;;;5.78;;
5416;SDS011;2731;50.754;12.990;2023-09-30T06:12:53;14.35;;;6.75;;
5416;SDS011;2731;50.754;12.990;2023-09-30T06:15:41;18.15;;;7.20;;
5416;SDS011;2731;50.754;12.990;2023-09-30T06:18:27;14.23;;;6.45;;
5416;SDS011;2731;50.754;12.990;2023-09-30T06:21:15;17.92;;;7.00;;
5416;SDS011;2731;50.754;12.990;2023-09-30T06:24:04;24.17;;;6.85;;
5416;SDS011;2731;50.754;12.990;2023-09-30T06:26:49;14.60;;;6.53;;
5416;SDS011;2731;50.754;12.990;2023-09-30T06:29:33;21.50;;;7.43;;
5416;SDS011;2731;50.754;12.990;2023-09-30T06:32:18;14.35;;;6.88;;
5416;SDS011;2731;50.754;12.990;2023-09-30T06:34:45;17.88;;;6.57;;
5416;SDS011;2731;50.754;12.990;2023-09-30T06:37:29;14.18;;;6.53;;
5416;SDS011;2731;50.754;12.990;2023-09-30T06:40:14;15.43;;;6.57;;
5416;SDS011;2731;50.754;12.990;2023-09-30T06:43:01;14.63;;;6.68;;
5416;SDS011;2731;50.754;12.990;2023-09-30T06:45:47;13.55;;;5.28;;
5416;SDS011;2731;50.754;12.990;2023-09-30T06:48:32;19.42;;;7.28;;
5416;SDS011;2731;50.754;12.990;2023-09-30T06:51:18;13.13;;;6.20;;
5416;SDS011;2731;50.754;12.990;2023-09-30T06:54:04;18.50;;;6.50;;
5416;SDS011;2731;50.754;12.990;2023-09-30T06:56:50;15.38;;;6.93;;
5416;SDS011;2731;50.754;12.990;2023-09-30T06:59:35;19.35;;;6.18;;
5416;SDS011;2731;50.754;12.990;2023-09-30T07:02:20;16.63;;;5.90;;
5416;SDS011;2731;50.754;12.990;2023-09-30T07:05:10;17.27;;;7.28;;
5416;SDS011;2731;50.754;12.990;2023-09-30T07:07:56;14.38;;;5.60;;
5416;SDS011;2731;50.754;12.990;2023-09-30T07:10:24;14.10;;;5.70;;
5416;SDS011;2731;50.754;12.990;2023-09-30T07:13:09;11.52;;;5.70;;
5416;SDS011;2731;50.754;12.990;2023-09-30T07:15:54;12.48;;;5.03;;
5416;SDS011;2731;50.754;12.990;2023-09-30T07:18:39;9.05;;;4.03;;
5416;SDS011;2731;50.754;12.990;2023-09-30T07:21:24;13.48;;;4.20;;
5416;SDS011;2731;50.754;12.990;2023-09-30T07:24:17;11.95;;;3.55;;
5416;SDS011;2731;50.754;12.990;2023-09-30T07:27:01;11.48;;;4.00;;
5416;SDS011;2731;50.754;12.990;2023-09-30T07:29:46;14.63;;;3.75;;
5416;SDS011;2731;50.754;12.990;2023-09-30T07:32:33;14.88;;;4.78;;
5416;SDS011;2731;50.754;12.990;2023-09-30T07:35:18;8.27;;;3.10;;
5416;SDS011;2731;50.754;12.990;2023-09-30T07:38:03;9.93;;;3.67;;
5416;SDS011;2731;50.754;12.990;2023-09-30T07:40:48;9.65;;;3.75;;
5416;SDS011;2731;50.754;12.990;2023-09-30T07:43:33;11.15;;;3.47;;
5416;SDS011;2731;50.754;12.990;2023-09-30T07:46:19;6.03;;;2.70;;
5416;SDS011;2731;50.754;12.990;2023-09-30T07:49:05;12.02;;;3.65;;
5416;SDS011;2731;50.754;12.990;2023-09-30T07:51:51;14.65;;;3.35;;
5416;SDS011;2731;50.754;12.990;2023-09-30T07:54:36;9.98;;;2.80;;
5416;SDS011;2731;50.754;12.990;2023-09-30T07:57:20;11.55;;;3.38;;
5416;SDS011;2731;50.754;12.990;2023-09-30T07:59:46;12.63;;;2.67;;
5416;SDS011;2731;50.754;12.990;2023-09-30T08:02:13;17.38;;;4.10;;
5416;SDS011;2731;50.754;12.990;2023-09-30T08:04:39;13.80;;;3.53;;
5416;SDS011;2731;50.754;12.990;2023-09-30T08:07:08;13.45;;;4.75;;
5416;SDS011;2731;50.754;12.990;2023-09-30T08:09:35;10.10;;;3.05;;
5416;SDS011;2731;50.754;12.990;2023-09-30T08:12:02;11.35;;;4.18;;
5416;SDS011;2731;50.754;12.990;2023-09-30T08:14:29;12.63;;;3.30;;
5416;SDS011;2731;50.754;12.990;2023-09-30T08:16:58;15.57;;;4.28;;
5416;SDS011;2731;50.754;12.990;2023-09-30T08:19:32;11.93;;;3.78;;
5416;SDS011;2731;50.754;12.990;2023-09-30T08:21:58;11.68;;;3.67;;
5416;SDS011;2731;50.754;12.990;2023-09-30T08:24:25;10.93;;;3.25;;
5416;SDS011;2731;50.754;12.990;2023-09-30T08:26:52;12.77;;;3.38;;
5416;SDS011;2731;50.754;12.990;2023-09-30T08:29:20;10.35;;;3.63;;
5416;SDS011;2731;50.754;12.990;2023-09-30T08:31:46;12.32;;;3.15;;
5416;SDS011;2731;50.754;12.990;2023-09-30T08:34:12;13.90;;;3.85;;
5416;SDS011;2731;50.754;12.990;2023-09-30T08:36:43;10.57;;;3.78;;
5416;SDS011;2731;50.754;12.990;2023-09-30T08:39:10;15.45;;;3.47;;
5416;SDS011;2731;50.754;12.990;2023-09-30T08:41:37;14.52;;;3.72;;
5416;SDS011;2731;50.754;12.990;2023-09-30T08:44:04;11.07;;;3.25;;
5416;SDS011;2731;50.754;12.990;2023-09-30T08:46:31;11.35;;;3.05;;
5416;SDS011;2731;50.754;12.990;2023-09-30T08:48:59;11.55;;;3.70;;
5416;SDS011;2731;50.754;12.990;2023-09-30T08:51:26;13.68;;;3.13;;
5416;SDS011;2731;50.754;12.990;2023-09-30T08:53:54;15.82;;;3.15;;
5416;SDS011;2731;50.754;12.990;2023-09-30T08:56:24;8.52;;;2.92;;
5416;SDS011;2731;50.754;12.990;2023-09-30T08:58:53;11.63;;;3.05;;
5416;SDS011;2731;50.754;12.990;2023-09-30T09:01:20;12.30;;;3.85;;
5416;SDS011;2731;50.754;12.990;2023-09-30T09:03:47;9.75;;;2.60;;
5416;SDS011;2731;50.754;12.990;2023-09-30T09:06:25;11.15;;;2.55;;
5416;SDS011;2731;50.754;12.990;2023-09-30T09:08:53;10.15;;;2.70;;
5416;SDS011;2731;50.754;12.990;2023-09-30T09:11:19;12.38;;;2.90;;
5416;SDS011;2731;50.754;12.990;2023-09-30T09:13:51;9.88;;;3.00;;
5416;SDS011;2731;50.754;12.990;2023-09-30T09:16:21;12.32;;;3.20;;
5416;SDS011;2731;50.754;12.990;2023-09-30T09:18:47;11.30;;;3.10;;
5416;SDS011;2731;50.754;12.990;2023-09-30T09:21:15;8.73;;;3.30;;
5416;SDS011;2731;50.754;12.990;2023-09-30T09:23:42;10.35;;;3.33;;
5416;SDS011;2731;50.754;12.990;2023-09-30T09:26:09;10.75;;;2.75;;
5416;SDS011;2731;50.754;12.990;2023-09-30T09:28:35;13.25;;;3.08;;
5416;SDS011;2731;50.754;12.990;2023-09-30T09:31:18;14.90;;;3.30;;
5416;SDS011;2731;50.754;12.990;2023-09-30T09:33:45;5.93;;;2.97;;
5416;SDS011;2731;50.754;12.990;2023-09-30T09:36:12;12.05;;;4.18;;
5416;SDS011;2731;50.754;12.990;2023-09-30T09:38:48;8.50;;;2.25;;
5416;SDS011;2731;50.754;12.990;2023-09-30T09:41:25;14.45;;;3.58;;
5416;SDS011;2731;50.754;12.990;2023-09-30T09:43:51;7.85;;;3.40;;
5416;SDS011;2731;50.754;12.990;2023-09-30T09:46:17;12.20;;;3.38;;
5416;SDS011;2731;50.754;12.990;2023-09-30T09:48:45;14.00;;;3.30;;
5416;SDS011;2731;50.754;12.990;2023-09-30T09:51:12;9.85;;;2.72;;
5416;SDS011;2731;50.754;12.990;2023-09-30T09:53:40;6.50;;;3.00;;
5416;SDS011;2731;50.754;12.990;2023-09-30T09:56:07;6.05;;;2.70;;
5416;SDS011;2731;50.754;12.990;2023-09-30T09:58:38;10.40;;;3.30;;
5416;SDS011;2731;50.754;12.990;2023-09-30T10:01:06;10.15;;;2.78;;
5416;SDS011;2731;50.754;12.990;2023-09-30T10:03:34;14.35;;;3.03;;
5416;SDS011;2731;50.754;12.990;2023-09-30T10:06:10;6.03;;;2.10;;
5416;SDS011;2731;50.754;12.990;2023-09-30T10:08:42;9.32;;;2.67;;
5416;SDS011;2731;50.754;12.990;2023-09-30T10:11:20;10.98;;;3.28;;
5416;SDS011;2731;50.754;12.990;2023-09-30T10:13:55;11.93;;;2.88;;
5416;SDS011;2731;50.754;12.990;2023-09-30T10:17:00;7.85;;;2.10;;
5416;SDS011;2731;50.754;12.990;2023-09-30T10:19:20;5.93;;;2.47;;
5416;SDS011;2731;50.754;12.990;2023-09-30T10:24:34;7.95;;;2.47;;
5416;SDS011;2731;50.754;12.990;2023-09-30T10:29:46;11.90;;;3.20;;
5416;SDS011;2731;50.754;12.990;2023-09-30T10:32:12;9.07;;;2.90;;
5416;SDS011;2731;50.754;12.990;2023-09-30T10:34:39;6.40;;;2.20;;
5416;SDS011;2731;50.754;12.990;2023-09-30T10:37:22;10.32;;;3.33;;
5416;SDS011;2731;50.754;12.990;2023-09-30T10:39:56;10.13;;;2.47;;
5416;SDS011;2731;50.754;12.990;2023-09-30T10:45:08;7.00;;;2.42;;
5416;SDS011;2731;50.754;12.990;2023-09-30T10:47:54;6.55;;;2.50;;
5416;SDS011;2731;50.754;12.990;2023-09-30T10:53:06;7.25;;;2.40;;
5416;SDS011;2731;50.754;12.990;2023-09-30T10:55:32;8.45;;;2.78;;
5416;SDS011;2731;50.754;12.990;2023-09-30T10:57:59;8.75;;;2.53;;
5416;SDS011;2731;50.754;12.990;2023-09-30T11:00:25;9.52;;;2.33;;
5416;SDS011;2731;50.754;12.990;2023-09-30T11:02:51;10.18;;;2.67;;
5416;SDS011;2731;50.754;12.990;2023-09-30T11:05:18;12.57;;;3.38;;
5416;SDS011;2731;50.754;12.990;2023-09-30T11:07:49;7.13;;;2.75;;
5416;SDS011;2731;50.754;12.990;2023-09-30T11:10:19;7.45;;;2.03;;
5416;SDS011;2731;50.754;12.990;2023-09-30T11:12:55;10.23;;;2.15;;
5416;SDS011;2731;50.754;12.990;2023-09-30T11:15:23;5.43;;;2.13;;
5416;SDS011;2731;50.754;12.990;2023-09-30T11:17:51;8.18;;;2.38;;
5416;SDS011;2731;50.754;12.990;2023-09-30T11:20:18;10.75;;;2.95;;
5416;SDS011;2731;50.754;12.990;2023-09-30T11:22:47;7.70;;;1.80;;
5416;SDS011;2731;50.754;12.990;2023-09-30T11:25:15;13.55;;;2.90;;
5416;SDS011;2731;50.754;12.990;2023-09-30T11:27:41;6.28;;;2.17;;
5416;SDS011;2731;50.754;12.990;2023-09-30T11:30:09;11.07;;;2.28;;
5416;SDS011;2731;50.754;12.990;2023-09-30T11:32:36;3.88;;;1.77;;
5416;SDS011;2731;50.754;12.990;2023-09-30T11:35:06;7.60;;;2.33;;
5416;SDS011;2731;50.754;12.990;2023-09-30T11:37:34;8.25;;;2.13;;
5416;SDS011;2731;50.754;12.990;2023-09-30T11:40:13;3.65;;;1.70;;
5416;SDS011;2731;50.754;12.990;2023-09-30T11:42:41;7.75;;;2.47;;
5416;SDS011;2731;50.754;12.990;2023-09-30T11:45:19;5.80;;;1.92;;
5416;SDS011;2731;50.754;12.990;2023-09-30T11:47:47;7.28;;;2.45;;
5416;SDS011;2731;50.754;12.990;2023-09-30T11:50:14;11.30;;;2.70;;
5416;SDS011;2731;50.754;12.990;2023-09-30T11:52:43;9.80;;;2.75;;
5416;SDS011;2731;50.754;12.990;2023-09-30T11:55:14;12.63;;;2.63;;
5416;SDS011;2731;50.754;12.990;2023-09-30T11:57:43;10.63;;;2.40;;
5416;SDS011;2731;50.754;12.990;2023-09-30T12:00:10;7.07;;;2.25;;
5416;SDS011;2731;50.754;12.990;2023-09-30T12:02:39;7.10;;;2.00;;
5416;SDS011;2731;50.754;12.990;2023-09-30T12:05:05;11.80;;;2.70;;
5416;SDS011;2731;50.754;12.990;2023-09-30T12:07:36;11.27;;;2.20;;
5416;SDS011;2731;50.754;12.990;2023-09-30T12:10:02;5.03;;;2.20;;
5416;SDS011;2731;50.754;12.990;2023-09-30T12:12:28;10.00;;;2.42;;
5416;SDS011;2731;50.754;12.990;2023-09-30T12:14:55;9.40;;;2.20;;
5416;SDS011;2731;50.754;12.990;2023-09-30T12:17:23;7.60;;;1.90;;
5416;SDS011;2731;50.754;12.990;2023-09-30T12:19:48;4.10;;;1.77;;
5416;SDS011;2731;50.754;12.990;2023-09-30T12:22:14;6.75;;;1.90;;
5416;SDS011;2731;50.754;12.990;2023-09-30T12:24:42;6.88;;;2.30;;
5416;SDS011;2731;50.754;12.990;2023-09-30T12:27:09;6.22;;;2.10;;
5416;SDS011;2731;50.754;12.990;2023-09-30T12:29:36;7.70;;;1.67;;
5416;SDS011;2731;50.754;12.990;2023-09-30T12:32:04;11.70;;;1.83;;
5416;SDS011;2731;50.754;12.990;2023-09-30T12:34:31;6.47;;;1.77;;
5416;SDS011;2731;50.754;12.990;2023-09-30T12:36:59;2.92;;;1.60;;
5416;SDS011;2731;50.754;12.990;2023-09-30T12:39:26;8.02;;;1.92;;
5416;SDS011;2731;50.754;12.990;2023-09-30T12:41:55;4.55;;;1.77;;
5416;SDS011;2731;50.754;12.990;2023-09-30T12:44:23;4.57;;;1.60;;
5416;SDS011;2731;50.754;12.990;2023-09-30T12:46:52;6.10;;;2.00;;
5416;SDS011;2731;50.754;12.990;2023-09-30T12:49:19;6.72;;;2.20;;
5416;SDS011;2731;50.754;12.990;2023-09-30T12:51:49;6.55;;;2.10;;
5416;SDS011;2731;50.754;12.990;2023-09-30T12:54:17;5.10;;;1.52;;
5416;SDS011;2731;50.754;12.990;2023-09-30T12:56:44;5.35;;;1.90;;
5416;SDS011;2731;50.754;12.990;2023-09-30T12:59:12;8.20;;;2.00;;
5416;SDS011;2731;50.754;12.990;2023-09-30T13:01:38;5.38;;;1.75;;
5416;SDS011;2731;50.754;12.990;2023-09-30T13:04:10;7.25;;;2.47;;
5416;SDS011;2731;50.754;12.990;2023-09-30T13:06:43;6.75;;;1.75;;
5416;SDS011;2731;50.754;12.990;2023-09-30T13:09:11;4.90;;;1.60;;
5416;SDS011;2731;50.754;12.990;2023-09-30T13:11:38;5.18;;;1.83;;
5416;SDS011;2731;50.754;12.990;2023-09-30T13:14:12;3.55;;;1.42;;
5416;SDS011;2731;50.754;12.990;2023-09-30T13:16:38;3.90;;;1.98;;
5416;SDS011;2731;50.754;12.990;2023-09-30T13:19:05;7.70;;;2.35;;
5416;SDS011;2731;50.754;12.990;2023-09-30T13:21:31;5.65;;;1.50;;
5416;SDS011;2731;50.754;12.990;2023-09-30T13:23:57;4.65;;;1.58;;
5416;SDS011;2731;50.754;12.990;2023-09-30T13:26:25;5.13;;;1.65;;
5416;SDS011;2731;50.754;12.990;2023-09-30T13:28:55;7.60;;;1.67;;
5416;SDS011;2731;50.754;12.990;2023-09-30T13:31:21;4.68;;;1.55;;
5416;SDS011;2731;50.754;12.990;2023-09-30T13:33:48;8.38;;;2.47;;
5416;SDS011;2731;50.754;12.990;2023-09-30T13:36:14;4.45;;;1.60;;
5416;SDS011;2731;50.754;12.990;2023-09-30T13:38:42;9.45;;;1.83;;
5416;SDS011;2731;50.754;12.990;2023-09-30T13:41:09;3.13;;;1.60;;
5416;SDS011;2731;50.754;12.990;2023-09-30T13:43:35;7.65;;;1.48;;
5416;SDS011;2731;50.754;12.990;2023-09-30T13:46:04;8.05;;;1.75;;
5416;SDS011;2731;50.754;12.990;2023-09-30T13:48:33;5.65;;;1.35;;
5416;SDS011;2731;50.754;12.990;2023-09-30T13:51:05;2.75;;;1.30;;
5416;SDS011;2731;50.754;12.990;2023-09-30T13:53:32;5.03;;;1.70;;
5416;SDS011;2731;50.754;12.990;2023-09-30T13:55:58;4.45;;;1.30;;
5416;SDS011;2731;50.754;12.990;2023-09-30T13:58:24;5.32;;;1.33;;
5416;SDS011;2731;50.754;12.990;2023-09-30T14:00:50;5.75;;;1.70;;
5416;SDS011;2731;50.754;12.990;2023-09-30T14:03:19;10.40;;;1.63;;
5416;SDS011;2731;50.754;12.990;2023-09-30T14:05:47;5.60;;;1.38;;
5416;SDS011;2731;50.754;12.990;2023-09-30T14:08:13;7.32;;;2.10;;
5416;SDS011;2731;50.754;12.990;2023-09-30T14:10:41;4.18;;;1.30;;
5416;SDS011;2731;50.754;12.990;2023-09-30T14:13:10;7.28;;;1.60;;
5416;SDS011;2731;50.754;12.990;2023-09-30T14:15:36;9.55;;;5.13;;
5416;SDS011;2731;50.754;12.990;2023-09-30T14:18:03;7.55;;;2.45;;
5416;SDS011;2731;50.754;12.990;2023-09-30T14:20:31;4.05;;;1.38;;
5416;SDS011;2731;50.754;12.990;2023-09-30T14:23:00;6.63;;;1.80;;
5416;SDS011;2731;50.754;12.990;2023-09-30T14:25:28;5.63;;;1.45;;
5416;SDS011;2731;50.754;12.990;2023-09-30T14:28:06;13.95;;;2.30;;
5416;SDS011;2731;50.754;12.990;2023-09-30T14:30:32;5.93;;;1.80;;
5416;SDS011;2731;50.754;12.990;2023-09-30T14:32:58;3.85;;;1.58;;
5416;SDS011;2731;50.754;12.990;2023-09-30T14:35:25;4.28;;;1.27;;
5416;SDS011;2731;50.754;12.990;2023-09-30T14:37:51;3.78;;;1.58;;
5416;SDS011;2731;50.754;12.990;2023-09-30T14:40:19;7.95;;;2.53;;
5416;SDS011;2731;50.754;12.990;2023-09-30T14:42:45;5.45;;;1.63;;
5416;SDS011;2731;50.754;12.990;2023-09-30T14:45:11;4.07;;;1.15;;
5416;SDS011;2731;50.754;12.990;2023-09-30T14:47:37;5.68;;;1.35;;
5416;SDS011;2731;50.754;12.990;2023-09-30T14:50:06;3.88;;;1.88;;
5416;SDS011;2731;50.754;12.990;2023-09-30T14:52:32;5.57;;;1.63;;
5416;SDS011;2731;50.754;12.990;2023-09-30T14:54:58;5.40;;;1.45;;
5416;SDS011;2731;50.754;12.990;2023-09-30T14:57:25;5.70;;;1.55;;
5416;SDS011;2731;50.754;12.990;2023-09-30T14:59:51;6.70;;;1.50;;
5416;SDS011;2731;50.754;12.990;2023-09-30T15:02:17;5.05;;;1.50;;
5416;SDS011;2731;50.754;12.990;2023-09-30T15:04:43;5.20;;;1.83;;
5416;SDS011;2731;50.754;12.990;2023-09-30T15:07:09;11.55;;;2.78;;
5416;SDS011;2731;50.754;12.990;2023-09-30T15:09:37;6.55;;;1.50;;
5416;SDS011;2731;50.754;12.990;2023-09-30T15:12:04;5.47;;;1.33;;
5416;SDS011;2731;50.754;12.990;2023-09-30T15:14:32;7.50;;;2.20;;
5416;SDS011;2731;50.754;12.990;2023-09-30T15:16:58;6.28;;;1.73;;
5416;SDS011;2731;50.754;12.990;2023-09-30T15:19:25;3.58;;;1.58;;
5416;SDS011;2731;50.754;12.990;2023-09-30T15:21:52;4.90;;;1.63;;
5416;SDS011;2731;50.754;12.990;2023-09-30T15:24:19;3.22;;;1.13;;
5416;SDS011;2731;50.754;12.990;2023-09-30T15:26:48;5.75;;;1.85;;
5416;SDS011;2731;50.754;12.990;2023-09-30T15:29:14;6.00;;;1.45;;
5416;SDS011;2731;50.754;12.990;2023-09-30T15:31:43;5.50;;;1.40;;
5416;SDS011;2731;50.754;12.990;2023-09-30T15:34:09;3.85;;;1.70;;
5416;SDS011;2731;50.754;12.990;2023-09-30T15:36:36;4.35;;;1.30;;
5416;SDS011;2731;50.754;12.990;2023-09-30T15:39:03;3.25;;;1.63;;
5416;SDS011;2731;50.754;12.990;2023-09-30T15:41:29;4.28;;;2.00;;
5416;SDS011;2731;50.754;12.990;2023-09-30T15:43:59;4.50;;;1.60;;
5416;SDS011;2731;50.754;12.990;2023-09-30T15:46:27;4.50;;;1.52;;
5416;SDS011;2731;50.754;12.990;2023-09-30T15:48:53;4.72;;;1.30;;
5416;SDS011;2731;50.754;12.990;2023-09-30T15:51:19;7.75;;;1.60;;
5416;SDS011;2731;50.754;12.990;2023-09-30T15:53:46;5.05;;;1.30;;
5416;SDS011;2731;50.754;12.990;2023-09-30T15:56:12;9.07;;;2.08;;
5416;SDS011;2731;50.754;12.990;2023-09-30T15:58:39;4.97;;;1.45;;
5416;SDS011;2731;50.754;12.990;2023-09-30T16:01:10;4.07;;;1.33;;